createdAt,value
2019-03-21T00:01:41.782Z,1.62
2019-03-21T00:04:13.531Z,1.52
2019-03-21T00:06:40.057Z,2.15
2019-03-21T00:09:08.904Z,1.92
2019-03-21T00:11:55.978Z,1.67
2019-03-21T00:14:35.530Z,0.90
2019-03-21T00:17:04.970Z,1.40
2019-03-21T00:19:31.605Z,1.50
2019-03-21T00:21:58.251Z,1.30
2019-03-21T00:24:24.821Z,1.30
2019-03-21T00:26:51.420Z,2.45
2019-03-21T00:29:17.910Z,1.50
2019-03-21T00:31:44.370Z,1.80
2019-03-21T00:34:11.023Z,1.67
2019-03-21T00:36:37.633Z,1.47
2019-03-21T00:39:06.796Z,1.67
2019-03-21T00:41:33.422Z,1.20
2019-03-21T00:44:00.532Z,0.88
2019-03-21T00:46:27.078Z,1.27
2019-03-21T00:48:53.704Z,1.07
2019-03-21T00:51:20.237Z,1.35
2019-03-21T00:53:46.870Z,1.17
2019-03-21T00:56:13.533Z,1.50
2019-03-21T00:58:40.028Z,1.20
2019-03-21T01:01:07.837Z,1.47
2019-03-21T01:03:34.549Z,1.22
2019-03-21T01:06:01.201Z,0.90
2019-03-21T01:08:27.825Z,1.72
2019-03-21T01:10:54.261Z,1.20
2019-03-21T01:13:22.116Z,1.05
2019-03-21T01:15:48.670Z,1.35
2019-03-21T01:18:15.379Z,1.57
2019-03-21T01:20:42.056Z,1.30
2019-03-21T01:23:08.672Z,1.15
2019-03-21T01:25:47.845Z,1.02
2019-03-21T01:28:14.471Z,1.17
2019-03-21T01:30:41.090Z,1.15
2019-03-21T01:33:07.713Z,1.32
2019-03-21T01:35:35.323Z,1.30
2019-03-21T01:38:02.023Z,1.35
2019-03-21T01:40:35.769Z,1.32
2019-03-21T01:43:02.389Z,1.00
2019-03-21T01:45:28.905Z,1.20
2019-03-21T01:47:55.559Z,1.30
2019-03-21T01:50:28.222Z,1.20
2019-03-21T01:52:54.843Z,1.02
2019-03-21T01:55:21.388Z,1.17
2019-03-21T01:57:48.510Z,1.30
2019-03-21T02:00:18.531Z,1.10
2019-03-21T02:02:46.612Z,1.17
2019-03-21T02:05:13.607Z,1.27
2019-03-21T02:07:40.137Z,1.57
2019-03-21T02:10:12.623Z,1.27
2019-03-21T02:12:39.120Z,1.98
2019-03-21T02:15:09.345Z,1.40
2019-03-21T02:17:36.045Z,1.30
2019-03-21T02:20:05.781Z,1.40
2019-03-21T02:22:32.405Z,1.35
2019-03-21T02:24:59.106Z,1.67
2019-03-21T02:27:26.183Z,1.72
2019-03-21T02:29:53.094Z,1.25
2019-03-21T02:32:19.746Z,1.30
2019-03-21T02:34:46.353Z,1.47
2019-03-21T02:37:12.988Z,1.40
2019-03-21T02:39:39.634Z,1.52
2019-03-21T02:42:06.145Z,1.30
2019-03-21T02:44:32.818Z,1.50
2019-03-21T02:46:59.435Z,1.60
2019-03-21T02:49:25.948Z,1.10
2019-03-21T02:51:52.598Z,1.25
2019-03-21T02:54:19.153Z,1.30
2019-03-21T02:56:45.783Z,1.47
2019-03-21T02:59:12.419Z,1.35
2019-03-21T03:01:39.066Z,1.42
2019-03-21T03:04:05.607Z,1.15
2019-03-21T03:06:32.137Z,1.32
2019-03-21T03:08:58.801Z,1.47
2019-03-21T03:11:25.315Z,1.40
2019-03-21T03:13:52.219Z,1.20
2019-03-21T03:16:20.361Z,1.30
2019-03-21T03:18:46.977Z,1.15
2019-03-21T03:21:13.483Z,1.32
2019-03-21T03:23:40.146Z,1.20
2019-03-21T03:26:06.651Z,1.10
2019-03-21T03:28:44.463Z,1.37
2019-03-21T03:31:11.067Z,0.90
2019-03-21T03:33:37.699Z,2.00
2019-03-21T03:36:04.223Z,1.00
2019-03-21T03:38:30.862Z,1.05
2019-03-21T03:41:01.950Z,0.93
2019-03-21T03:43:28.611Z,1.20
2019-03-21T03:45:55.138Z,1.22
2019-03-21T03:48:21.744Z,1.17
2019-03-21T03:50:48.295Z,0.85
2019-03-21T03:53:14.985Z,1.02
2019-03-21T03:55:41.496Z,1.17
2019-03-21T03:58:14.413Z,1.52
2019-03-21T04:01:00.760Z,0.95
2019-03-21T04:03:27.512Z,0.93
2019-03-21T04:05:53.936Z,1.32
2019-03-21T04:08:20.423Z,1.35
2019-03-21T04:10:48.514Z,1.40
2019-03-21T04:13:14.855Z,0.80
2019-03-21T04:15:52.478Z,0.85
2019-03-21T04:18:10.003Z,1.30
2019-03-21T04:20:51.747Z,1.05
2019-03-21T04:23:20.882Z,1.22
2019-03-21T04:25:54.085Z,1.20
2019-03-21T04:28:21.016Z,1.32
2019-03-21T04:30:47.483Z,1.45
2019-03-21T04:33:14.125Z,1.57
2019-03-21T04:35:40.639Z,0.90
2019-03-21T04:38:07.186Z,1.30
2019-03-21T04:40:33.916Z,1.45
2019-03-21T04:43:00.533Z,1.20
2019-03-21T04:45:27.183Z,1.22
2019-03-21T04:47:54.141Z,1.70
2019-03-21T04:50:23.844Z,1.20
2019-03-21T04:52:50.487Z,1.15
2019-03-21T04:55:16.997Z,1.40
2019-03-21T04:57:43.657Z,1.25
2019-03-21T05:00:31.226Z,1.15
2019-03-21T05:03:00.259Z,1.00
2019-03-21T05:05:26.871Z,1.45
2019-03-21T05:07:53.533Z,1.12
2019-03-21T05:10:20.051Z,1.10
2019-03-21T05:12:46.667Z,1.30
2019-03-21T05:15:16.313Z,1.47
2019-03-21T05:17:43.718Z,1.50
2019-03-21T05:20:14.463Z,1.30
2019-03-21T05:22:41.189Z,1.20
2019-03-21T05:25:10.396Z,1.60
2019-03-21T05:27:37.014Z,1.17
2019-03-21T05:30:07.259Z,1.02
2019-03-21T05:32:34.441Z,1.70
2019-03-21T05:35:01.052Z,1.17
2019-03-21T05:37:27.498Z,1.25
2019-03-21T05:39:54.221Z,1.35
2019-03-21T05:42:21.022Z,2.60
2019-03-21T05:44:47.697Z,1.90
2019-03-21T05:47:14.316Z,1.27
2019-03-21T05:49:40.829Z,1.20
2019-03-21T05:52:07.268Z,1.22
2019-03-21T05:54:33.887Z,1.20
2019-03-21T05:57:00.413Z,1.15
2019-03-21T05:59:26.938Z,1.27
2019-03-21T06:01:53.614Z,1.30
2019-03-21T06:04:20.249Z,1.30
2019-03-21T06:07:02.755Z,1.10
2019-03-21T06:09:29.373Z,1.47
2019-03-21T06:12:01.271Z,1.22
2019-03-21T06:14:31.130Z,1.47
2019-03-21T06:16:58.233Z,1.47
2019-03-21T06:19:37.125Z,1.27
2019-03-21T06:22:10.247Z,1.45
2019-03-21T06:24:40.586Z,1.62
2019-03-21T06:27:27.741Z,1.30
2019-03-21T06:29:54.919Z,1.57
2019-03-21T06:32:21.545Z,1.82
2019-03-21T06:34:48.108Z,1.35
2019-03-21T06:37:14.758Z,1.40
2019-03-21T06:39:41.376Z,1.82
2019-03-21T06:42:08.044Z,1.95
2019-03-21T06:44:34.840Z,1.60
2019-03-21T06:47:01.658Z,1.62
2019-03-21T06:49:28.325Z,1.52
2019-03-21T06:51:54.949Z,2.33
2019-03-21T06:54:21.874Z,1.67
2019-03-21T06:56:48.895Z,1.52
2019-03-21T06:59:15.537Z,2.15
2019-03-21T07:01:41.933Z,1.87
2019-03-21T07:04:08.627Z,1.60
2019-03-21T07:06:35.486Z,1.70
2019-03-21T07:09:04.709Z,1.95
2019-03-21T07:11:31.255Z,1.87
2019-03-21T07:13:58.168Z,1.55
2019-03-21T07:16:24.992Z,1.47
2019-03-21T07:18:51.489Z,1.85
2019-03-21T07:21:18.215Z,1.30
2019-03-21T07:23:44.904Z,1.42
2019-03-21T07:26:11.700Z,1.55
2019-03-21T07:28:38.794Z,1.32
2019-03-21T07:31:05.394Z,1.55
2019-03-21T07:33:32.335Z,1.65
2019-03-21T07:35:59.474Z,1.52
2019-03-21T07:38:44.338Z,2.00
2019-03-21T07:41:10.878Z,1.65
2019-03-21T07:43:37.744Z,2.10
2019-03-21T07:46:04.584Z,1.40
2019-03-21T07:48:31.094Z,1.75
2019-03-21T07:50:57.757Z,1.62
2019-03-21T07:53:24.594Z,1.82
2019-03-21T07:55:51.366Z,2.20
2019-03-21T07:58:17.879Z,2.05
2019-03-21T08:00:44.526Z,2.12
2019-03-21T08:03:10.974Z,2.10
2019-03-21T08:05:40.558Z,2.00
2019-03-21T08:08:06.166Z,2.42
2019-03-21T08:10:32.693Z,1.95
2019-03-21T08:12:59.527Z,2.25
2019-03-21T08:15:26.339Z,2.20
2019-03-21T08:17:52.986Z,1.87
2019-03-21T08:20:19.625Z,2.05
2019-03-21T08:22:46.565Z,2.02
2019-03-21T08:25:13.431Z,1.90
2019-03-21T08:27:40.073Z,2.00
2019-03-21T08:30:18.757Z,1.95
2019-03-21T08:32:45.598Z,2.20
2019-03-21T08:35:12.437Z,1.85
2019-03-21T08:37:39.454Z,2.00
2019-03-21T08:40:06.518Z,2.50
2019-03-21T08:42:34.593Z,2.17
2019-03-21T08:45:01.373Z,2.40
2019-03-21T08:47:27.942Z,2.12
2019-03-21T08:49:54.878Z,2.05
2019-03-21T08:52:21.525Z,2.47
2019-03-21T08:54:48.141Z,2.37
2019-03-21T08:57:14.784Z,2.67
2019-03-21T08:59:41.560Z,2.05
2019-03-21T09:02:08.178Z,2.25
2019-03-21T09:04:34.625Z,2.12
2019-03-21T09:07:01.280Z,2.47
2019-03-21T09:09:27.808Z,2.22
2019-03-21T09:11:54.543Z,2.40
2019-03-21T09:14:21.148Z,2.45
2019-03-21T09:16:48.912Z,1.85
2019-03-21T09:19:15.567Z,2.40
2019-03-21T09:21:42.500Z,1.90
2019-03-21T09:24:09.062Z,1.90
2019-03-21T09:26:35.689Z,2.10
2019-03-21T09:29:02.620Z,1.82
2019-03-21T09:31:29.226Z,2.42
2019-03-21T09:33:55.871Z,2.17
2019-03-21T09:36:22.422Z,2.60
2019-03-21T09:38:49.070Z,2.10
2019-03-21T09:41:15.722Z,2.27
2019-03-21T09:43:42.464Z,2.02
2019-03-21T09:46:08.981Z,2.05
2019-03-21T09:48:35.610Z,2.12
2019-03-21T09:51:02.522Z,2.00
2019-03-21T09:53:29.145Z,2.40
2019-03-21T09:55:55.675Z,2.35
2019-03-21T09:58:22.357Z,2.62
2019-03-21T10:00:48.878Z,2.33
2019-03-21T10:03:15.762Z,2.83
2019-03-21T10:05:42.406Z,2.52
2019-03-21T10:08:09.055Z,1.95
2019-03-21T10:10:35.765Z,1.90
2019-03-21T10:13:03.626Z,2.42
2019-03-21T10:15:30.282Z,2.25
2019-03-21T10:17:56.920Z,2.00
2019-03-21T10:20:23.461Z,2.27
2019-03-21T10:22:50.026Z,2.22
2019-03-21T10:25:16.434Z,2.10
2019-03-21T10:27:43.080Z,1.80
2019-03-21T10:30:10.122Z,2.55
2019-03-21T10:32:36.683Z,2.02
2019-03-21T10:35:05.093Z,2.05
2019-03-21T10:37:31.698Z,2.45
2019-03-21T10:39:58.353Z,2.42
2019-03-21T10:42:24.994Z,2.00
2019-03-21T10:44:51.622Z,2.33
2019-03-21T10:47:18.241Z,3.25
2019-03-21T10:49:45.187Z,2.67
2019-03-21T10:52:11.793Z,2.45
2019-03-21T10:54:38.411Z,2.08
2019-03-21T10:57:05.071Z,2.45
2019-03-21T10:59:31.821Z,2.25
2019-03-21T11:02:06.927Z,2.10
2019-03-21T11:04:27.119Z,2.42
2019-03-21T11:06:59.401Z,2.02
2019-03-21T11:09:26.042Z,2.10
2019-03-21T11:11:52.478Z,1.90
2019-03-21T11:14:19.109Z,2.15
2019-03-21T11:16:46.051Z,2.15
2019-03-21T11:19:12.585Z,3.20
2019-03-21T11:21:39.243Z,2.40
2019-03-21T11:24:05.929Z,2.12
2019-03-21T11:26:32.680Z,2.15
2019-03-21T11:28:59.329Z,1.82
2019-03-21T11:31:25.965Z,2.60
2019-03-21T11:33:52.637Z,2.65
2019-03-21T11:36:19.263Z,2.45
2019-03-21T11:38:45.975Z,2.52
2019-03-21T11:41:12.665Z,2.20
2019-03-21T11:43:39.482Z,3.12
2019-03-21T11:46:06.134Z,2.15
2019-03-21T11:48:33.024Z,1.85
2019-03-21T11:50:59.514Z,2.30
2019-03-21T11:53:26.286Z,2.55
2019-03-21T11:55:52.946Z,2.70
2019-03-21T11:58:19.567Z,2.22
2019-03-21T12:00:46.174Z,2.27
2019-03-21T12:03:12.586Z,2.00
2019-03-21T12:05:39.206Z,1.95
2019-03-21T12:08:05.871Z,2.37
2019-03-21T12:10:32.502Z,2.47
2019-03-21T12:12:59.272Z,2.52
2019-03-21T12:15:25.946Z,2.27
2019-03-21T12:17:52.855Z,2.12
2019-03-21T12:20:30.209Z,2.55
2019-03-21T12:22:56.873Z,2.20
2019-03-21T12:25:23.501Z,2.08
2019-03-21T12:27:50.010Z,1.77
2019-03-21T12:30:29.961Z,2.42
2019-03-21T12:32:56.935Z,2.30
2019-03-21T12:35:23.437Z,2.40
2019-03-21T12:37:50.074Z,2.40
2019-03-21T12:40:16.702Z,2.02
2019-03-21T12:42:43.331Z,1.60
2019-03-21T12:45:10.071Z,2.10
2019-03-21T12:47:36.585Z,1.80
2019-03-21T12:50:06.184Z,2.30
2019-03-21T12:52:40.944Z,2.20
2019-03-21T12:55:01.454Z,1.90
2019-03-21T12:57:28.001Z,2.20
2019-03-21T12:59:54.828Z,1.77
2019-03-21T13:04:50.121Z,2.10
2019-03-21T13:07:13.077Z,2.17
2019-03-21T13:07:17.246Z,2.25
2019-03-21T13:09:43.891Z,2.17
2019-03-21T13:12:10.394Z,1.92
2019-03-21T13:14:37.279Z,2.10
2019-03-21T13:17:03.799Z,2.60
2019-03-21T13:19:30.411Z,2.25
2019-03-21T13:21:57.090Z,2.55
2019-03-21T13:24:23.698Z,2.70
2019-03-21T13:26:50.600Z,3.50
2019-03-21T13:29:17.194Z,3.00
2019-03-21T13:31:43.819Z,3.33
2019-03-21T13:34:10.805Z,2.85
2019-03-21T13:36:37.446Z,2.70
2019-03-21T13:39:05.671Z,3.33
2019-03-21T13:41:32.296Z,2.87
2019-03-21T13:43:58.874Z,2.85
2019-03-21T13:46:25.508Z,2.58
2019-03-21T13:48:52.025Z,3.12
2019-03-21T13:51:18.693Z,2.55
2019-03-21T13:53:45.309Z,3.08
2019-03-21T13:56:11.982Z,3.77
2019-03-21T13:58:38.526Z,3.15
2019-03-21T14:01:05.137Z,2.87
2019-03-21T14:03:31.681Z,2.70
2019-03-21T14:05:58.228Z,2.70
2019-03-21T14:08:24.855Z,2.87
2019-03-21T14:10:51.784Z,3.12
2019-03-21T14:13:18.446Z,2.80
2019-03-21T14:15:45.121Z,2.87
2019-03-21T14:18:11.845Z,3.25
2019-03-21T14:20:38.415Z,3.37
2019-03-21T14:23:16.075Z,3.08
2019-03-21T14:25:33.451Z,2.47
2019-03-21T14:28:00.367Z,3.10
2019-03-21T14:30:26.997Z,3.22
2019-03-21T14:32:53.413Z,2.92
2019-03-21T14:35:20.374Z,3.08
2019-03-21T14:37:47.182Z,3.30
2019-03-21T14:40:14.907Z,2.67
2019-03-21T14:42:41.639Z,2.90
2019-03-21T14:45:10.701Z,3.05
2019-03-21T14:47:37.327Z,3.30
2019-03-21T14:50:05.895Z,3.00
2019-03-21T14:52:32.814Z,3.02
2019-03-21T14:54:59.458Z,2.83
2019-03-21T14:57:26.003Z,3.42
2019-03-21T14:59:52.646Z,3.00
2019-03-21T15:02:19.275Z,2.77
2019-03-21T15:04:46.042Z,3.17
2019-03-21T15:07:12.573Z,2.80
2019-03-21T15:09:39.181Z,2.67
2019-03-21T15:12:05.966Z,3.00
2019-03-21T15:14:32.585Z,2.90
2019-03-21T15:16:59.196Z,2.87
2019-03-21T15:19:25.850Z,2.62
2019-03-21T15:21:52.486Z,3.15
2019-03-21T15:24:19.098Z,3.15
2019-03-21T15:26:45.563Z,2.98
2019-03-21T15:29:12.366Z,3.58
2019-03-21T15:31:38.880Z,3.33
2019-03-21T15:34:05.210Z,2.83
2019-03-21T15:36:31.645Z,2.98
2019-03-21T15:38:58.059Z,3.02
2019-03-21T15:41:24.654Z,3.60
2019-03-21T15:43:51.161Z,3.27
2019-03-21T15:46:17.673Z,3.33
2019-03-21T15:48:44.513Z,3.40
2019-03-21T15:51:11.027Z,3.33
2019-03-21T15:53:37.459Z,2.75
2019-03-21T15:56:04.049Z,2.72
2019-03-21T15:58:30.554Z,3.30
2019-03-21T16:00:57.120Z,3.47
2019-03-21T16:03:23.776Z,3.08
2019-03-21T16:05:50.292Z,3.50
2019-03-21T16:08:16.874Z,3.37
2019-03-21T16:10:43.372Z,3.10
2019-03-21T16:13:09.776Z,2.58
2019-03-21T16:15:36.188Z,2.50
2019-03-21T16:18:03.293Z,2.50
2019-03-21T16:20:29.797Z,3.17
2019-03-21T16:22:56.202Z,3.40
2019-03-21T16:25:23.010Z,2.98
2019-03-21T16:27:49.629Z,3.05
2019-03-21T16:30:16.444Z,2.80
2019-03-21T16:32:43.079Z,2.92
2019-03-21T16:35:09.487Z,3.27
2019-03-21T16:37:36.053Z,2.72
2019-03-21T16:40:05.281Z,2.95
2019-03-21T16:42:32.215Z,3.40
2019-03-21T16:44:58.651Z,3.08
2019-03-21T16:47:24.969Z,3.70
2019-03-21T16:49:51.377Z,3.15
2019-03-21T16:52:17.918Z,3.12
2019-03-21T16:54:44.361Z,2.90
2019-03-21T16:57:10.758Z,3.30
2019-03-21T16:59:37.302Z,2.80
2019-03-21T17:02:03.907Z,3.17
2019-03-21T17:04:30.210Z,3.60
2019-03-21T17:06:56.603Z,3.05
2019-03-21T17:09:23.197Z,3.55
2019-03-21T17:11:49.595Z,5.08
2019-03-21T17:14:16.094Z,3.27
2019-03-21T17:16:42.657Z,3.17
2019-03-21T17:19:09.099Z,3.45
2019-03-21T17:21:35.481Z,3.25
2019-03-21T17:24:02.595Z,3.02
2019-03-21T17:26:28.949Z,3.92
2019-03-21T17:28:55.390Z,4.37
2019-03-21T17:31:21.810Z,3.02
2019-03-21T17:33:48.447Z,3.30
2019-03-21T17:36:14.848Z,4.00
2019-03-21T17:38:41.326Z,3.22
2019-03-21T17:41:08.105Z,3.22
2019-03-21T17:43:34.499Z,3.08
2019-03-21T17:46:00.931Z,3.52
2019-03-21T17:48:27.380Z,2.83
2019-03-21T17:50:53.783Z,2.87
2019-03-21T17:53:20.223Z,2.87
2019-03-21T17:55:46.630Z,2.33
2019-03-21T17:58:13.243Z,2.60
2019-03-21T18:00:39.677Z,2.30
2019-03-21T18:03:06.163Z,2.70
2019-03-21T18:05:32.700Z,2.22
2019-03-21T18:07:59.411Z,2.85
2019-03-21T18:10:32.770Z,3.20
2019-03-21T18:12:59.173Z,4.58
2019-03-21T18:15:26.458Z,3.90
2019-03-21T18:17:52.938Z,3.37
2019-03-21T18:20:19.337Z,3.12
2019-03-21T18:22:46.057Z,3.02
2019-03-21T18:25:12.497Z,2.27
2019-03-21T18:27:39.135Z,3.05
2019-03-21T18:30:06.573Z,2.70
2019-03-21T18:32:33.206Z,3.42
2019-03-21T18:34:59.717Z,3.70
2019-03-21T18:37:26.728Z,5.25
2019-03-21T18:39:53.608Z,7.25
2019-03-21T18:42:20.248Z,4.87
2019-03-21T18:44:47.208Z,2.40
2019-03-21T18:47:13.864Z,2.70
2019-03-21T18:49:40.379Z,2.80
2019-03-21T18:52:07.080Z,2.67
2019-03-21T18:54:33.708Z,2.05
2019-03-21T18:57:00.244Z,1.85
2019-03-21T18:59:26.893Z,2.15
2019-03-21T19:01:58.597Z,1.72
2019-03-21T19:04:22.161Z,2.37
2019-03-21T19:06:49.175Z,2.55
2019-03-21T19:09:15.747Z,2.33
2019-03-21T19:11:42.256Z,1.82
2019-03-21T19:14:09.334Z,2.27
2019-03-21T19:16:35.950Z,3.17
2019-03-21T19:19:02.452Z,2.90
2019-03-21T19:21:29.115Z,3.52
2019-03-21T19:23:55.636Z,2.77
2019-03-21T19:26:22.264Z,2.80
2019-03-21T19:28:49.137Z,2.42
2019-03-21T19:31:15.774Z,2.27
2019-03-21T19:33:42.393Z,2.22
2019-03-21T19:36:09.044Z,2.30
2019-03-21T19:38:35.680Z,1.98
2019-03-21T19:41:02.596Z,2.65
2019-03-21T19:43:29.576Z,2.42
2019-03-21T19:45:56.104Z,2.12
2019-03-21T19:48:22.715Z,2.33
2019-03-21T19:50:49.469Z,2.42
2019-03-21T19:53:16.087Z,2.72
2019-03-21T19:55:42.607Z,2.30
2019-03-21T19:58:09.274Z,2.20
2019-03-21T20:00:35.895Z,2.30
2019-03-21T20:03:02.578Z,2.10
2019-03-21T20:05:29.199Z,2.62
2019-03-21T20:07:55.903Z,2.83
2019-03-21T20:10:22.539Z,2.50
2019-03-21T20:12:49.257Z,2.40
2019-03-21T20:15:16.394Z,2.37
2019-03-21T20:17:43.022Z,2.58
2019-03-21T20:20:14.665Z,2.40
2019-03-21T20:22:41.290Z,2.80
2019-03-21T20:25:08.033Z,2.20
2019-03-21T20:27:34.731Z,2.25
2019-03-21T20:30:01.689Z,1.90
2019-03-21T20:32:28.363Z,2.02
2019-03-21T20:34:55.360Z,2.22
2019-03-21T20:37:21.985Z,2.12
2019-03-21T20:39:48.797Z,2.25
2019-03-21T20:42:16.117Z,2.15
2019-03-21T20:44:43.043Z,2.12
2019-03-21T20:47:09.697Z,2.20
2019-03-21T20:49:36.462Z,2.40
2019-03-21T20:52:03.375Z,2.60
2019-03-21T20:54:30.210Z,3.17
2019-03-21T20:56:57.174Z,2.62
2019-03-21T20:59:23.823Z,2.20
2019-03-21T21:01:50.348Z,2.00
2019-03-21T21:04:17.362Z,2.85
2019-03-21T21:06:44.118Z,2.90
2019-03-21T21:09:10.572Z,2.15
2019-03-21T21:11:37.354Z,2.17
2019-03-21T21:14:04.069Z,1.87
2019-03-21T21:16:30.734Z,2.40
2019-03-21T21:18:57.337Z,2.20
2019-03-21T21:21:24.250Z,2.45
2019-03-21T21:23:50.960Z,1.80
2019-03-21T21:26:17.578Z,1.85
2019-03-21T21:28:44.242Z,2.10
2019-03-21T21:31:10.869Z,1.82
2019-03-21T21:33:37.432Z,2.10
2019-03-21T21:36:04.344Z,1.30
2019-03-21T21:38:30.872Z,3.95
2019-03-21T21:40:57.528Z,2.27
2019-03-21T21:43:24.358Z,3.15
2019-03-21T21:45:50.955Z,2.40
2019-03-21T21:48:17.819Z,2.05
2019-03-21T21:50:44.462Z,1.87
2019-03-21T21:53:10.977Z,2.33
2019-03-21T21:55:37.780Z,2.33
2019-03-21T21:58:04.402Z,4.35
2019-03-21T22:00:31.013Z,2.45
2019-03-21T22:02:57.964Z,2.37
2019-03-21T22:05:24.592Z,2.42
2019-03-21T22:07:51.229Z,2.10
2019-03-21T22:10:18.274Z,3.00
2019-03-21T22:12:45.474Z,2.95
2019-03-21T22:15:13.366Z,3.45
2019-03-21T22:17:40.282Z,4.08
2019-03-21T22:20:08.620Z,4.00
2019-03-21T22:22:35.287Z,4.35
2019-03-21T22:25:04.029Z,3.10
2019-03-21T22:27:30.552Z,4.05
2019-03-21T22:29:56.979Z,3.65
2019-03-21T22:32:23.815Z,3.77
2019-03-21T22:34:50.443Z,3.02
2019-03-21T22:37:16.964Z,3.15
2019-03-21T22:39:44.566Z,3.42
2019-03-21T22:42:11.112Z,3.87
2019-03-21T22:44:38.182Z,5.17
2019-03-21T22:47:05.157Z,4.30
2019-03-21T22:49:31.790Z,3.98
2019-03-21T22:51:58.422Z,4.03
2019-03-21T22:54:24.963Z,5.42
2019-03-21T22:56:51.472Z,5.45
2019-03-21T22:59:17.977Z,3.40
2019-03-21T23:01:44.816Z,2.22
2019-03-21T23:04:11.528Z,2.67
2019-03-21T23:06:38.248Z,3.00
2019-03-21T23:09:07.058Z,3.22
2019-03-21T23:11:33.674Z,3.15
2019-03-21T23:14:00.517Z,3.40
2019-03-21T23:16:27.134Z,3.25
2019-03-21T23:18:53.753Z,3.45
2019-03-21T23:21:20.376Z,3.67
2019-03-21T23:23:47.053Z,3.85
2019-03-21T23:26:19.803Z,2.67
2019-03-21T23:28:46.314Z,3.20
2019-03-21T23:31:12.975Z,4.85
2019-03-21T23:33:39.558Z,13.68
2019-03-21T23:36:06.177Z,6.37
2019-03-21T23:38:33.006Z,4.15
2019-03-21T23:40:59.634Z,3.15
2019-03-21T23:43:26.263Z,2.77
2019-03-21T23:45:53.217Z,2.40
2019-03-21T23:48:19.867Z,3.02
2019-03-21T23:50:46.702Z,4.28
2019-03-21T23:53:13.398Z,3.75
2019-03-21T23:55:40.067Z,3.35
2019-03-21T23:58:06.711Z,2.77
